sensor_id;sensor_type;location;lat;lon;timestamp;temperature;humidity
19292;DHT22;9779;51.756;7.450;2022-10-30T00:01:12;15.20;99.90
19292;DHT22;9779;51.756;7.450;2022-10-30T00:03:40;15.20;99.90
19292;DHT22;9779;51.756;7.450;2022-10-30T00:06:08;15.20;99.90
19292;DHT22;9779;51.756;7.450;2022-10-30T00:08:34;15.20;99.90
19292;DHT22;9779;51.756;7.450;2022-10-30T00:11:11;15.20;99.90
19292;DHT22;9779;51.756;7.450;2022-10-30T00:13:37;15.20;99.90
19292;DHT22;9779;51.756;7.450;2022-10-30T00:16:10;15.10;99.90
19292;DHT22;9779;51.756;7.450;2022-10-30T00:18:37;15.10;99.90
19292;DHT22;9779;51.756;7.450;2022-10-30T00:21:11;15.10;99.90
19292;DHT22;9779;51.756;7.450;2022-10-30T00:23:44;15.10;99.90
19292;DHT22;9779;51.756;7.450;2022-10-30T00:26:11;15.10;99.90
19292;DHT22;9779;51.756;7.450;2022-10-30T00:28:41;15.10;99.90
19292;DHT22;9779;51.756;7.450;2022-10-30T00:31:06;15.00;99.90
19292;DHT22;9779;51.756;7.450;2022-10-30T00:33:32;15.00;99.90
19292;DHT22;9779;51.756;7.450;2022-10-30T00:35:58;15.00;99.90
19292;DHT22;9779;51.756;7.450;2022-10-30T00:38:24;15.00;99.90
19292;DHT22;9779;51.756;7.450;2022-10-30T00:40:57;14.90;99.90
19292;DHT22;9779;51.756;7.450;2022-10-30T00:43:35;14.90;99.90
19292;DHT22;9779;51.756;7.450;2022-10-30T00:48:38;14.90;99.90
19292;DHT22;9779;51.756;7.450;2022-10-30T00:51:08;14.90;99.90
19292;DHT22;9779;51.756;7.450;2022-10-30T00:53:35;14.80;99.90
19292;DHT22;9779;51.756;7.450;2022-10-30T00:56:06;14.80;99.90
19292;DHT22;9779;51.756;7.450;2022-10-30T00:58:38;14.80;99.90
19292;DHT22;9779;51.756;7.450;2022-10-30T01:01:09;14.70;99.90
19292;DHT22;9779;51.756;7.450;2022-10-30T01:03:38;14.70;99.90
19292;DHT22;9779;51.756;7.450;2022-10-30T01:06:07;14.70;99.90
19292;DHT22;9779;51.756;7.450;2022-10-30T01:08:36;14.70;99.90
19292;DHT22;9779;51.756;7.450;2022-10-30T01:11:06;14.70;99.90
19292;DHT22;9779;51.756;7.450;2022-10-30T01:13:36;14.70;99.90
19292;DHT22;9779;51.756;7.450;2022-10-30T01:18:52;14.60;99.90
19292;DHT22;9779;51.756;7.450;2022-10-30T01:21:40;14.60;99.90
19292;DHT22;9779;51.756;7.450;2022-10-30T01:24:30;14.60;99.90
19292;DHT22;9779;51.756;7.450;2022-10-30T01:27:14;14.60;99.90
19292;DHT22;9779;51.756;7.450;2022-10-30T01:35:39;14.50;99.90
19292;DHT22;9779;51.756;7.450;2022-10-30T01:38:43;14.50;99.90
19292;DHT22;9779;51.756;7.450;2022-10-30T01:41:11;14.50;99.90
19292;DHT22;9779;51.756;7.450;2022-10-30T01:43:38;14.50;99.90
19292;DHT22;9779;51.756;7.450;2022-10-30T01:49:06;14.40;99.90
19292;DHT22;9779;51.756;7.450;2022-10-30T01:51:56;14.40;99.90
19292;DHT22;9779;51.756;7.450;2022-10-30T01:57:59;14.30;99.90
19292;DHT22;9779;51.756;7.450;2022-10-30T02:00:26;14.40;99.90
19292;DHT22;9779;51.756;7.450;2022-10-30T02:02:55;14.30;99.90
19292;DHT22;9779;51.756;7.450;2022-10-30T02:05:48;14.30;99.90
19292;DHT22;9779;51.756;7.450;2022-10-30T02:08:14;14.30;99.90
19292;DHT22;9779;51.756;7.450;2022-10-30T02:10:44;14.20;99.90
19292;DHT22;9779;51.756;7.450;2022-10-30T02:13:12;14.20;99.90
19292;DHT22;9779;51.756;7.450;2022-10-30T02:15:46;14.20;99.90
19292;DHT22;9779;51.756;7.450;2022-10-30T02:18:12;14.30;99.90
19292;DHT22;9779;51.756;7.450;2022-10-30T02:20:38;14.20;99.90
19292;DHT22;9779;51.756;7.450;2022-10-30T02:23:04;14.30;99.90
19292;DHT22;9779;51.756;7.450;2022-10-30T02:25:36;14.20;99.90
19292;DHT22;9779;51.756;7.450;2022-10-30T02:28:02;14.20;99.90
19292;DHT22;9779;51.756;7.450;2022-10-30T02:30:30;14.20;99.90
19292;DHT22;9779;51.756;7.450;2022-10-30T02:32:59;14.20;99.90
19292;DHT22;9779;51.756;7.450;2022-10-30T02:35:28;14.20;99.90
19292;DHT22;9779;51.756;7.450;2022-10-30T02:37:54;14.20;99.90
19292;DHT22;9779;51.756;7.450;2022-10-30T02:40:22;14.20;99.90
19292;DHT22;9779;51.756;7.450;2022-10-30T02:42:54;14.10;99.90
19292;DHT22;9779;51.756;7.450;2022-10-30T02:45:22;14.10;99.90
19292;DHT22;9779;51.756;7.450;2022-10-30T02:47:48;14.00;99.90
19292;DHT22;9779;51.756;7.450;2022-10-30T02:50:13;14.00;99.90
19292;DHT22;9779;51.756;7.450;2022-10-30T02:52:39;14.00;99.90
19292;DHT22;9779;51.756;7.450;2022-10-30T02:55:05;14.00;99.90
19292;DHT22;9779;51.756;7.450;2022-10-30T02:57:31;14.00;99.90
19292;DHT22;9779;51.756;7.450;2022-10-30T03:00:04;13.90;99.90
19292;DHT22;9779;51.756;7.450;2022-10-30T03:02:30;13.90;99.90
19292;DHT22;9779;51.756;7.450;2022-10-30T03:04:55;13.90;99.90
19292;DHT22;9779;51.756;7.450;2022-10-30T03:07:23;13.90;99.90
19292;DHT22;9779;51.756;7.450;2022-10-30T03:12:19;13.90;99.90
19292;DHT22;9779;51.756;7.450;2022-10-30T03:14:45;13.70;99.90
19292;DHT22;9779;51.756;7.450;2022-10-30T03:17:10;13.70;99.90
19292;DHT22;9779;51.756;7.450;2022-10-30T03:19:36;13.70;99.90
19292;DHT22;9779;51.756;7.450;2022-10-30T03:22:05;13.70;99.90
19292;DHT22;9779;51.756;7.450;2022-10-30T03:24:31;13.70;99.90
19292;DHT22;9779;51.756;7.450;2022-10-30T03:26:56;13.60;99.90
19292;DHT22;9779;51.756;7.450;2022-10-30T03:29:22;13.70;99.90
19292;DHT22;9779;51.756;7.450;2022-10-30T03:31:50;13.60;99.90
19292;DHT22;9779;51.756;7.450;2022-10-30T03:34:18;13.60;99.90
19292;DHT22;9779;51.756;7.450;2022-10-30T03:36:43;13.50;99.90
19292;DHT22;9779;51.756;7.450;2022-10-30T03:39:09;13.50;99.90
19292;DHT22;9779;51.756;7.450;2022-10-30T03:41:35;13.50;99.90
19292;DHT22;9779;51.756;7.450;2022-10-30T03:44:00;13.50;99.90
19292;DHT22;9779;51.756;7.450;2022-10-30T03:46:26;13.40;99.90
19292;DHT22;9779;51.756;7.450;2022-10-30T03:48:51;13.50;99.90
19292;DHT22;9779;51.756;7.450;2022-10-30T03:51:17;13.40;99.90
19292;DHT22;9779;51.756;7.450;2022-10-30T03:53:42;13.40;99.90
19292;DHT22;9779;51.756;7.450;2022-10-30T03:56:08;13.40;99.90
19292;DHT22;9779;51.756;7.450;2022-10-30T03:58:34;13.40;99.90
19292;DHT22;9779;51.756;7.450;2022-10-30T04:01:04;13.40;99.90
19292;DHT22;9779;51.756;7.450;2022-10-30T04:03:31;13.30;99.90
19292;DHT22;9779;51.756;7.450;2022-10-30T04:05:56;13.30;99.90
19292;DHT22;9779;51.756;7.450;2022-10-30T04:08:22;13.30;99.90
19292;DHT22;9779;51.756;7.450;2022-10-30T04:10:48;13.20;99.90
19292;DHT22;9779;51.756;7.450;2022-10-30T04:13:15;13.20;99.90
19292;DHT22;9779;51.756;7.450;2022-10-30T04:15:41;13.20;99.90
19292;DHT22;9779;51.756;7.450;2022-10-30T04:18:10;13.20;99.90
19292;DHT22;9779;51.756;7.450;2022-10-30T04:20:36;13.20;99.90
19292;DHT22;9779;51.756;7.450;2022-10-30T04:23:06;13.20;99.90
19292;DHT22;9779;51.756;7.450;2022-10-30T04:25:33;13.20;99.90
19292;DHT22;9779;51.756;7.450;2022-10-30T04:27:59;13.20;99.90
19292;DHT22;9779;51.756;7.450;2022-10-30T04:30:24;13.20;99.90
19292;DHT22;9779;51.756;7.450;2022-10-30T04:32:53;13.10;99.90
19292;DHT22;9779;51.756;7.450;2022-10-30T04:35:22;13.10;99.90
19292;DHT22;9779;51.756;7.450;2022-10-30T04:37:55;13.10;99.90
19292;DHT22;9779;51.756;7.450;2022-10-30T04:40:22;13.00;99.90
19292;DHT22;9779;51.756;7.450;2022-10-30T04:42:48;13.00;99.90
19292;DHT22;9779;51.756;7.450;2022-10-30T04:45:14;13.00;99.90
19292;DHT22;9779;51.756;7.450;2022-10-30T04:47:40;13.00;99.90
19292;DHT22;9779;51.756;7.450;2022-10-30T04:50:06;12.90;99.90
19292;DHT22;9779;51.756;7.450;2022-10-30T04:52:31;12.90;99.90
19292;DHT22;9779;51.756;7.450;2022-10-30T04:54:57;12.90;99.90
19292;DHT22;9779;51.756;7.450;2022-10-30T04:57:23;12.90;99.90
19292;DHT22;9779;51.756;7.450;2022-10-30T04:59:48;12.90;99.90
19292;DHT22;9779;51.756;7.450;2022-10-30T05:02:14;12.90;99.90
19292;DHT22;9779;51.756;7.450;2022-10-30T05:04:39;12.80;99.90
19292;DHT22;9779;51.756;7.450;2022-10-30T05:07:05;12.80;99.90
19292;DHT22;9779;51.756;7.450;2022-10-30T05:09:31;12.80;99.90
19292;DHT22;9779;51.756;7.450;2022-10-30T05:11:57;12.70;99.90
19292;DHT22;9779;51.756;7.450;2022-10-30T05:14:23;12.70;99.90
19292;DHT22;9779;51.756;7.450;2022-10-30T05:16:48;12.70;99.90
19292;DHT22;9779;51.756;7.450;2022-10-30T05:19:14;12.60;99.90
19292;DHT22;9779;51.756;7.450;2022-10-30T05:21:39;12.60;99.90
19292;DHT22;9779;51.756;7.450;2022-10-30T05:24:05;12.60;99.90
19292;DHT22;9779;51.756;7.450;2022-10-30T05:26:31;12.60;99.90
19292;DHT22;9779;51.756;7.450;2022-10-30T05:28:56;12.60;99.90
19292;DHT22;9779;51.756;7.450;2022-10-30T05:31:22;12.60;99.90
19292;DHT22;9779;51.756;7.450;2022-10-30T05:33:47;12.50;99.90
19292;DHT22;9779;51.756;7.450;2022-10-30T05:36:13;12.50;99.90
19292;DHT22;9779;51.756;7.450;2022-10-30T05:38:38;12.50;99.90
19292;DHT22;9779;51.756;7.450;2022-10-30T05:41:04;12.50;99.90
19292;DHT22;9779;51.756;7.450;2022-10-30T05:43:29;12.50;99.90
19292;DHT22;9779;51.756;7.450;2022-10-30T05:45:55;12.40;99.90
19292;DHT22;9779;51.756;7.450;2022-10-30T05:48:20;12.40;99.90
19292;DHT22;9779;51.756;7.450;2022-10-30T05:50:46;12.40;99.90
19292;DHT22;9779;51.756;7.450;2022-10-30T05:53:11;12.30;99.90
19292;DHT22;9779;51.756;7.450;2022-10-30T05:55:37;12.30;99.90
19292;DHT22;9779;51.756;7.450;2022-10-30T05:58:04;12.30;99.90
19292;DHT22;9779;51.756;7.450;2022-10-30T06:00:32;12.30;99.90
19292;DHT22;9779;51.756;7.450;2022-10-30T06:02:59;12.20;99.90
19292;DHT22;9779;51.756;7.450;2022-10-30T06:05:25;12.20;99.90
19292;DHT22;9779;51.756;7.450;2022-10-30T06:07:54;12.20;99.90
19292;DHT22;9779;51.756;7.450;2022-10-30T06:10:20;12.20;99.90
19292;DHT22;9779;51.756;7.450;2022-10-30T06:12:57;12.10;99.90
19292;DHT22;9779;51.756;7.450;2022-10-30T06:15:23;12.10;99.90
19292;DHT22;9779;51.756;7.450;2022-10-30T06:17:49;12.10;99.90
19292;DHT22;9779;51.756;7.450;2022-10-30T06:20:15;12.10;99.90
19292;DHT22;9779;51.756;7.450;2022-10-30T06:22:41;12.00;99.90
19292;DHT22;9779;51.756;7.450;2022-10-30T06:25:07;12.00;99.90
19292;DHT22;9779;51.756;7.450;2022-10-30T06:27:36;12.00;99.90
19292;DHT22;9779;51.756;7.450;2022-10-30T06:30:01;12.00;99.90
19292;DHT22;9779;51.756;7.450;2022-10-30T06:32:27;12.00;99.90
19292;DHT22;9779;51.756;7.450;2022-10-30T06:34:52;12.00;99.90
19292;DHT22;9779;51.756;7.450;2022-10-30T06:37:18;12.00;99.90
19292;DHT22;9779;51.756;7.450;2022-10-30T06:39:43;11.90;99.90
19292;DHT22;9779;51.756;7.450;2022-10-30T06:42:09;11.90;99.90
19292;DHT22;9779;51.756;7.450;2022-10-30T06:44:35;11.90;99.90
19292;DHT22;9779;51.756;7.450;2022-10-30T06:47:00;11.90;99.90
19292;DHT22;9779;51.756;7.450;2022-10-30T06:49:26;11.90;99.90
19292;DHT22;9779;51.756;7.450;2022-10-30T06:51:51;11.90;99.90
19292;DHT22;9779;51.756;7.450;2022-10-30T06:54:17;11.90;99.90
19292;DHT22;9779;51.756;7.450;2022-10-30T06:56:42;11.90;99.90
19292;DHT22;9779;51.756;7.450;2022-10-30T06:59:09;11.90;99.90
19292;DHT22;9779;51.756;7.450;2022-10-30T07:01:34;11.90;99.90
19292;DHT22;9779;51.756;7.450;2022-10-30T07:04:00;11.90;99.90
19292;DHT22;9779;51.756;7.450;2022-10-30T07:06:25;11.90;99.90
19292;DHT22;9779;51.756;7.450;2022-10-30T07:08:51;11.90;99.90
19292;DHT22;9779;51.756;7.450;2022-10-30T07:11:16;11.90;99.90
19292;DHT22;9779;51.756;7.450;2022-10-30T07:13:44;11.90;99.90
19292;DHT22;9779;51.756;7.450;2022-10-30T07:16:09;11.90;99.90
19292;DHT22;9779;51.756;7.450;2022-10-30T07:18:35;11.90;99.90
19292;DHT22;9779;51.756;7.450;2022-10-30T07:21:01;11.90;99.90
19292;DHT22;9779;51.756;7.450;2022-10-30T07:23:26;11.90;99.90
19292;DHT22;9779;51.756;7.450;2022-10-30T07:25:52;11.90;99.90
19292;DHT22;9779;51.756;7.450;2022-10-30T07:28:17;11.90;99.90
19292;DHT22;9779;51.756;7.450;2022-10-30T07:30:43;12.00;99.90
19292;DHT22;9779;51.756;7.450;2022-10-30T07:33:09;12.00;99.90
19292;DHT22;9779;51.756;7.450;2022-10-30T07:35:35;12.00;99.90
19292;DHT22;9779;51.756;7.450;2022-10-30T07:38:11;12.00;99.90
19292;DHT22;9779;51.756;7.450;2022-10-30T07:40:37;12.00;99.90
19292;DHT22;9779;51.756;7.450;2022-10-30T07:43:04;12.00;99.90
19292;DHT22;9779;51.756;7.450;2022-10-30T07:45:30;12.00;99.90
19292;DHT22;9779;51.756;7.450;2022-10-30T07:47:56;12.10;99.90
19292;DHT22;9779;51.756;7.450;2022-10-30T07:50:23;12.10;99.90
19292;DHT22;9779;51.756;7.450;2022-10-30T07:52:48;12.10;99.90
19292;DHT22;9779;51.756;7.450;2022-10-30T07:55:14;12.10;99.90
19292;DHT22;9779;51.756;7.450;2022-10-30T07:57:41;12.20;99.90
19292;DHT22;9779;51.756;7.450;2022-10-30T08:00:11;12.20;99.90
19292;DHT22;9779;51.756;7.450;2022-10-30T08:02:37;12.20;99.90
19292;DHT22;9779;51.756;7.450;2022-10-30T08:05:04;12.60;99.90
19292;DHT22;9779;51.756;7.450;2022-10-30T08:07:31;12.60;99.90
19292;DHT22;9779;51.756;7.450;2022-10-30T08:09:57;12.50;99.90
19292;DHT22;9779;51.756;7.450;2022-10-30T08:12:24;12.50;99.90
19292;DHT22;9779;51.756;7.450;2022-10-30T08:14:49;12.50;99.90
19292;DHT22;9779;51.756;7.450;2022-10-30T08:17:15;12.50;99.90
19292;DHT22;9779;51.756;7.450;2022-10-30T08:19:40;12.60;99.90
19292;DHT22;9779;51.756;7.450;2022-10-30T08:22:07;12.60;99.90
19292;DHT22;9779;51.756;7.450;2022-10-30T08:24:33;12.60;99.90
19292;DHT22;9779;51.756;7.450;2022-10-30T08:26:58;12.70;99.90
19292;DHT22;9779;51.756;7.450;2022-10-30T08:29:24;12.70;99.90
19292;DHT22;9779;51.756;7.450;2022-10-30T08:31:50;12.80;99.90
19292;DHT22;9779;51.756;7.450;2022-10-30T08:34:15;12.80;99.90
19292;DHT22;9779;51.756;7.450;2022-10-30T08:36:41;12.90;99.90
19292;DHT22;9779;51.756;7.450;2022-10-30T08:39:08;13.00;99.90
19292;DHT22;9779;51.756;7.450;2022-10-30T08:41:33;13.00;99.90
19292;DHT22;9779;51.756;7.450;2022-10-30T08:43:59;13.10;99.90
19292;DHT22;9779;51.756;7.450;2022-10-30T08:46:25;13.10;99.90
19292;DHT22;9779;51.756;7.450;2022-10-30T08:48:50;13.20;99.90
19292;DHT22;9779;51.756;7.450;2022-10-30T08:51:16;13.30;99.90
19292;DHT22;9779;51.756;7.450;2022-10-30T08:53:41;13.40;99.90
19292;DHT22;9779;51.756;7.450;2022-10-30T08:56:07;13.50;99.90
19292;DHT22;9779;51.756;7.450;2022-10-30T08:58:32;13.50;99.90
19292;DHT22;9779;51.756;7.450;2022-10-30T09:00:58;13.60;99.90
19292;DHT22;9779;51.756;7.450;2022-10-30T09:03:23;13.70;99.90
19292;DHT22;9779;51.756;7.450;2022-10-30T09:05:49;13.80;99.90
19292;DHT22;9779;51.756;7.450;2022-10-30T09:08:15;13.80;99.90
19292;DHT22;9779;51.756;7.450;2022-10-30T09:10:40;13.90;99.90
19292;DHT22;9779;51.756;7.450;2022-10-30T09:13:06;14.00;99.90
19292;DHT22;9779;51.756;7.450;2022-10-30T09:15:31;14.10;99.90
19292;DHT22;9779;51.756;7.450;2022-10-30T09:17:59;14.10;99.90
19292;DHT22;9779;51.756;7.450;2022-10-30T09:20:25;14.20;99.90
19292;DHT22;9779;51.756;7.450;2022-10-30T09:22:51;14.30;99.90
19292;DHT22;9779;51.756;7.450;2022-10-30T09:25:16;14.40;99.90
19292;DHT22;9779;51.756;7.450;2022-10-30T09:27:42;14.50;99.90
19292;DHT22;9779;51.756;7.450;2022-10-30T09:30:08;14.60;99.90
19292;DHT22;9779;51.756;7.450;2022-10-30T09:32:34;14.70;99.90
19292;DHT22;9779;51.756;7.450;2022-10-30T09:35:00;14.80;99.90
19292;DHT22;9779;51.756;7.450;2022-10-30T09:37:26;14.90;99.90
19292;DHT22;9779;51.756;7.450;2022-10-30T09:39:52;15.00;99.90
19292;DHT22;9779;51.756;7.450;2022-10-30T09:42:53;15.10;99.90
19292;DHT22;9779;51.756;7.450;2022-10-30T09:48:36;15.20;99.90
19292;DHT22;9779;51.756;7.450;2022-10-30T09:54:02;15.40;99.90
19292;DHT22;9779;51.756;7.450;2022-10-30T09:59:42;15.60;99.90
19292;DHT22;9779;51.756;7.450;2022-10-30T10:02:26;15.70;99.90
19292;DHT22;9779;51.756;7.450;2022-10-30T10:04:58;15.80;99.90
19292;DHT22;9779;51.756;7.450;2022-10-30T10:07:31;15.90;99.90
19292;DHT22;9779;51.756;7.450;2022-10-30T10:10:02;16.10;99.90
19292;DHT22;9779;51.756;7.450;2022-10-30T10:12:46;16.10;99.90
19292;DHT22;9779;51.756;7.450;2022-10-30T10:15:31;16.20;99.90
19292;DHT22;9779;51.756;7.450;2022-10-30T10:18:00;16.30;99.90
19292;DHT22;9779;51.756;7.450;2022-10-30T10:20:36;16.40;99.90
19292;DHT22;9779;51.756;7.450;2022-10-30T10:23:33;16.50;99.90
19292;DHT22;9779;51.756;7.450;2022-10-30T10:26:08;16.60;99.90
19292;DHT22;9779;51.756;7.450;2022-10-30T10:31:13;16.80;99.90
19292;DHT22;9779;51.756;7.450;2022-10-30T10:36:41;17.00;99.90
19292;DHT22;9779;51.756;7.450;2022-10-30T10:39:19;17.10;99.90
19292;DHT22;9779;51.756;7.450;2022-10-30T10:42:16;17.20;99.90
19292;DHT22;9779;51.756;7.450;2022-10-30T10:50:33;17.50;99.90
19292;DHT22;9779;51.756;7.450;2022-10-30T10:53:17;17.70;99.90
19292;DHT22;9779;51.756;7.450;2022-10-30T10:55:48;17.80;99.90
19292;DHT22;9779;51.756;7.450;2022-10-30T11:00:51;18.00;99.90
19292;DHT22;9779;51.756;7.450;2022-10-30T11:03:22;18.10;99.90
19292;DHT22;9779;51.756;7.450;2022-10-30T11:05:53;18.10;99.90
19292;DHT22;9779;51.756;7.450;2022-10-30T11:08:24;18.20;99.90
19292;DHT22;9779;51.756;7.450;2022-10-30T11:11:05;18.30;99.90
19292;DHT22;9779;51.756;7.450;2022-10-30T11:13:39;18.30;99.90
19292;DHT22;9779;51.756;7.450;2022-10-30T11:18:41;18.70;99.90
19292;DHT22;9779;51.756;7.450;2022-10-30T11:21:10;18.70;99.90
19292;DHT22;9779;51.756;7.450;2022-10-30T11:23:42;18.80;99.90
19292;DHT22;9779;51.756;7.450;2022-10-30T11:29:32;19.00;99.90
19292;DHT22;9779;51.756;7.450;2022-10-30T11:31:38;19.10;99.90
19292;DHT22;9779;51.756;7.450;2022-10-30T11:37:01;19.30;99.90
19292;DHT22;9779;51.756;7.450;2022-10-30T11:39:32;19.40;99.90
19292;DHT22;9779;51.756;7.450;2022-10-30T11:42:13;19.60;99.90
19292;DHT22;9779;51.756;7.450;2022-10-30T11:44:42;19.70;99.90
19292;DHT22;9779;51.756;7.450;2022-10-30T11:47:09;19.80;99.90
19292;DHT22;9779;51.756;7.450;2022-10-30T11:49:46;19.90;99.90
19292;DHT22;9779;51.756;7.450;2022-10-30T11:52:17;20.00;99.90
19292;DHT22;9779;51.756;7.450;2022-10-30T11:54:46;20.10;99.90
19292;DHT22;9779;51.756;7.450;2022-10-30T11:59:55;20.20;99.90
19292;DHT22;9779;51.756;7.450;2022-10-30T12:02:25;20.30;99.90
19292;DHT22;9779;51.756;7.450;2022-10-30T12:04:51;20.40;99.90
19292;DHT22;9779;51.756;7.450;2022-10-30T12:07:24;20.50;99.90
19292;DHT22;9779;51.756;7.450;2022-10-30T12:09:52;20.60;99.90
19292;DHT22;9779;51.756;7.450;2022-10-30T12:12:22;20.60;99.90
19292;DHT22;9779;51.756;7.450;2022-10-30T12:17:15;20.70;99.90
19292;DHT22;9779;51.756;7.450;2022-10-30T12:19:53;20.80;99.90
19292;DHT22;9779;51.756;7.450;2022-10-30T12:22:30;20.90;99.90
19292;DHT22;9779;51.756;7.450;2022-10-30T12:24:57;21.00;99.90
19292;DHT22;9779;51.756;7.450;2022-10-30T12:27:24;21.10;99.90
19292;DHT22;9779;51.756;7.450;2022-10-30T12:30:04;21.10;99.90
19292;DHT22;9779;51.756;7.450;2022-10-30T12:32:41;21.20;99.90
19292;DHT22;9779;51.756;7.450;2022-10-30T12:35:30;21.30;99.90
19292;DHT22;9779;51.756;7.450;2022-10-30T12:37:57;21.30;99.90
19292;DHT22;9779;51.756;7.450;2022-10-30T12:40:29;21.30;99.90
19292;DHT22;9779;51.756;7.450;2022-10-30T12:43:17;21.40;99.90
19292;DHT22;9779;51.756;7.450;2022-10-30T12:45:46;21.40;99.90
19292;DHT22;9779;51.756;7.450;2022-10-30T12:48:24;21.40;99.90
19292;DHT22;9779;51.756;7.450;2022-10-30T12:53:52;21.60;99.90
19292;DHT22;9779;51.756;7.450;2022-10-30T12:56:37;21.70;99.90
19292;DHT22;9779;51.756;7.450;2022-10-30T12:59:26;21.90;99.90
19292;DHT22;9779;51.756;7.450;2022-10-30T13:02:19;21.90;99.90
19292;DHT22;9779;51.756;7.450;2022-10-30T13:04:48;21.90;99.90
19292;DHT22;9779;51.756;7.450;2022-10-30T13:10:11;22.00;99.90
19292;DHT22;9779;51.756;7.450;2022-10-30T13:12:41;22.00;99.90
19292;DHT22;9779;51.756;7.450;2022-10-30T13:15:35;22.00;99.90
19292;DHT22;9779;51.756;7.450;2022-10-30T13:18:13;22.00;99.90
19292;DHT22;9779;51.756;7.450;2022-10-30T13:20:39;22.00;99.90
19292;DHT22;9779;51.756;7.450;2022-10-30T13:23:11;21.90;99.90
19292;DHT22;9779;51.756;7.450;2022-10-30T13:26:02;21.90;99.90
19292;DHT22;9779;51.756;7.450;2022-10-30T13:28:36;22.00;99.90
19292;DHT22;9779;51.756;7.450;2022-10-30T13:31:28;21.90;99.90
19292;DHT22;9779;51.756;7.450;2022-10-30T13:34:43;21.90;99.90
19292;DHT22;9779;51.756;7.450;2022-10-30T13:48:35;21.90;99.90
19292;DHT22;9779;51.756;7.450;2022-10-30T13:54:20;21.90;99.90
19292;DHT22;9779;51.756;7.450;2022-10-30T13:56:48;21.90;99.90
19292;DHT22;9779;51.756;7.450;2022-10-30T13:59:27;21.90;99.90
19292;DHT22;9779;51.756;7.450;2022-10-30T14:02:03;21.90;99.90
19292;DHT22;9779;51.756;7.450;2022-10-30T14:04:49;21.90;99.90
19292;DHT22;9779;51.756;7.450;2022-10-30T14:07:32;21.90;99.90
19292;DHT22;9779;51.756;7.450;2022-10-30T14:10:12;21.90;99.90
19292;DHT22;9779;51.756;7.450;2022-10-30T14:15:33;21.80;99.90
19292;DHT22;9779;51.756;7.450;2022-10-30T14:23:12;21.70;99.90
19292;DHT22;9779;51.756;7.450;2022-10-30T14:25:39;21.60;99.90
19292;DHT22;9779;51.756;7.450;2022-10-30T14:28:19;21.60;99.90
19292;DHT22;9779;51.756;7.450;2022-10-30T14:30:45;21.60;99.90
19292;DHT22;9779;51.756;7.450;2022-10-30T14:39:27;21.50;99.90
19292;DHT22;9779;51.756;7.450;2022-10-30T14:42:19;21.40;99.90
19292;DHT22;9779;51.756;7.450;2022-10-30T14:47:47;21.40;99.90
19292;DHT22;9779;51.756;7.450;2022-10-30T15:13:58;20.90;99.90
19292;DHT22;9779;51.756;7.450;2022-10-30T15:16:27;20.80;99.90
19292;DHT22;9779;51.756;7.450;2022-10-30T15:19:05;20.80;99.90
19292;DHT22;9779;51.756;7.450;2022-10-30T15:21:38;20.80;99.90
19292;DHT22;9779;51.756;7.450;2022-10-30T15:24:11;20.70;99.90
19292;DHT22;9779;51.756;7.450;2022-10-30T15:26:38;20.60;99.90
19292;DHT22;9779;51.756;7.450;2022-10-30T15:29:04;20.60;99.90
19292;DHT22;9779;51.756;7.450;2022-10-30T15:31:31;20.50;99.90
19292;DHT22;9779;51.756;7.450;2022-10-30T15:33:58;20.50;99.90
19292;DHT22;9779;51.756;7.450;2022-10-30T15:36:26;20.40;99.90
19292;DHT22;9779;51.756;7.450;2022-10-30T15:39:07;20.30;99.90
19292;DHT22;9779;51.756;7.450;2022-10-30T15:41:43;20.30;99.90
19292;DHT22;9779;51.756;7.450;2022-10-30T15:44:17;20.20;99.90
19292;DHT22;9779;51.756;7.450;2022-10-30T15:46:48;20.10;99.90
19292;DHT22;9779;51.756;7.450;2022-10-30T15:49:19;20.10;99.90
19292;DHT22;9779;51.756;7.450;2022-10-30T15:51:46;20.00;99.90
19292;DHT22;9779;51.756;7.450;2022-10-30T15:54:15;20.00;99.90
19292;DHT22;9779;51.756;7.450;2022-10-30T15:56:44;20.00;99.90
19292;DHT22;9779;51.756;7.450;2022-10-30T15:59:25;19.90;99.90
19292;DHT22;9779;51.756;7.450;2022-10-30T16:01:54;19.80;99.90
19292;DHT22;9779;51.756;7.450;2022-10-30T16:04:30;19.70;99.90
19292;DHT22;9779;51.756;7.450;2022-10-30T16:06:58;19.60;99.90
19292;DHT22;9779;51.756;7.450;2022-10-30T16:09:25;19.50;99.90
19292;DHT22;9779;51.756;7.450;2022-10-30T16:11:53;19.40;99.90
19292;DHT22;9779;51.756;7.450;2022-10-30T16:14:23;19.40;99.90
19292;DHT22;9779;51.756;7.450;2022-10-30T16:16:49;19.30;99.90
19292;DHT22;9779;51.756;7.450;2022-10-30T16:19:24;19.20;99.90
19292;DHT22;9779;51.756;7.450;2022-10-30T16:21:52;19.20;99.90
19292;DHT22;9779;51.756;7.450;2022-10-30T16:24:18;19.10;99.90
19292;DHT22;9779;51.756;7.450;2022-10-30T16:27:01;19.00;99.90
19292;DHT22;9779;51.756;7.450;2022-10-30T16:29:26;19.00;99.90
19292;DHT22;9779;51.756;7.450;2022-10-30T16:31:53;18.90;99.90
19292;DHT22;9779;51.756;7.450;2022-10-30T16:34:27;18.80;99.90
19292;DHT22;9779;51.756;7.450;2022-10-30T16:37:00;18.70;99.90
19292;DHT22;9779;51.756;7.450;2022-10-30T16:39:27;18.70;99.90
19292;DHT22;9779;51.756;7.450;2022-10-30T16:41:59;18.60;99.90
19292;DHT22;9779;51.756;7.450;2022-10-30T16:44:27;18.60;99.90
19292;DHT22;9779;51.756;7.450;2022-10-30T16:49:23;18.40;99.90
19292;DHT22;9779;51.756;7.450;2022-10-30T16:52:06;18.40;99.90
19292;DHT22;9779;51.756;7.450;2022-10-30T16:54:38;18.30;99.90
19292;DHT22;9779;51.756;7.450;2022-10-30T16:57:15;18.30;99.90
19292;DHT22;9779;51.756;7.450;2022-10-30T16:59:45;18.20;99.90
19292;DHT22;9779;51.756;7.450;2022-10-30T17:02:20;18.10;99.90
19292;DHT22;9779;51.756;7.450;2022-10-30T17:04:49;18.10;99.90
19292;DHT22;9779;51.756;7.450;2022-10-30T17:07:18;18.00;99.90
19292;DHT22;9779;51.756;7.450;2022-10-30T17:09:46;18.00;99.90
19292;DHT22;9779;51.756;7.450;2022-10-30T17:12:17;17.90;99.90
19292;DHT22;9779;51.756;7.450;2022-10-30T17:14:47;17.90;99.90
19292;DHT22;9779;51.756;7.450;2022-10-30T17:17:35;17.90;99.90
19292;DHT22;9779;51.756;7.450;2022-10-30T17:22:37;17.70;99.90
19292;DHT22;9779;51.756;7.450;2022-10-30T17:25:26;17.70;99.90
19292;DHT22;9779;51.756;7.450;2022-10-30T17:27:52;17.60;99.90
19292;DHT22;9779;51.756;7.450;2022-10-30T17:33:23;17.40;99.90
19292;DHT22;9779;51.756;7.450;2022-10-30T17:35:48;17.40;99.90
19292;DHT22;9779;51.756;7.450;2022-10-30T17:38:13;17.40;99.90
19292;DHT22;9779;51.756;7.450;2022-10-30T17:40:39;17.30;99.90
19292;DHT22;9779;51.756;7.450;2022-10-30T17:43:04;17.20;99.90
19292;DHT22;9779;51.756;7.450;2022-10-30T17:45:30;17.20;99.90
19292;DHT22;9779;51.756;7.450;2022-10-30T17:47:56;17.10;99.90
19292;DHT22;9779;51.756;7.450;2022-10-30T17:50:22;17.10;99.90
19292;DHT22;9779;51.756;7.450;2022-10-30T17:52:47;17.00;99.90
19292;DHT22;9779;51.756;7.450;2022-10-30T17:55:22;17.00;99.90
19292;DHT22;9779;51.756;7.450;2022-10-30T17:57:49;17.00;99.90
19292;DHT22;9779;51.756;7.450;2022-10-30T18:00:16;16.90;99.90
19292;DHT22;9779;51.756;7.450;2022-10-30T18:02:41;16.80;99.90
19292;DHT22;9779;51.756;7.450;2022-10-30T18:05:16;16.80;99.90
19292;DHT22;9779;51.756;7.450;2022-10-30T18:07:42;16.80;99.90